createdAt,value
2022-08-25T00:08:46.818Z,54.27
2022-08-25T00:23:46.923Z,54.43
2022-08-25T00:38:46.916Z,54.64
2022-08-25T00:53:46.906Z,58.14
2022-08-25T01:08:46.939Z,60.65
2022-08-25T01:23:47.165Z,63.26
2022-08-25T01:38:47.008Z,72.73
2022-08-25T01:53:47.186Z,80.11
2022-08-25T02:08:47.301Z,85.79
2022-08-25T02:23:47.161Z,91.94
2022-08-25T02:38:47.369Z,96.97
2022-08-25T02:53:47.351Z,100.00
2022-08-25T03:08:47.336Z,98.15
2022-08-25T03:23:47.601Z,98.76
2022-08-25T03:38:47.449Z,95.36
2022-08-25T03:53:47.467Z,95.40
2022-08-25T04:08:47.532Z,94.68
2022-08-25T04:23:47.582Z,94.96
2022-08-25T04:38:47.834Z,96.49
2022-08-25T04:53:47.672Z,100.00
2022-08-25T05:08:47.703Z,99.52
2022-08-25T05:23:47.891Z,88.05
2022-08-25T05:38:47.668Z,85.02
2022-08-25T05:53:47.791Z,83.52
2022-08-25T06:08:47.803Z,77.14
2022-08-25T06:23:47.904Z,73.53
2022-08-25T06:38:48.074Z,67.81
2022-08-25T06:53:47.890Z,63.73
2022-08-25T07:08:47.957Z,59.90
2022-08-25T07:23:48.278Z,57.49
2022-08-25T07:38:48.198Z,57.39
2022-08-25T07:53:48.179Z,55.47
2022-08-25T08:08:48.141Z,53.64
2022-08-25T08:23:48.210Z,51.89
2022-08-25T08:38:48.297Z,51.68
2022-08-25T08:53:48.362Z,48.45
2022-08-25T09:08:48.358Z,47.54
2022-08-25T09:23:48.492Z,46.92
2022-08-25T09:38:48.481Z,45.53
2022-08-25T09:53:48.603Z,43.04
2022-08-25T10:08:48.473Z,42.27
2022-08-25T10:23:48.415Z,41.32
2022-08-25T10:38:48.524Z,39.50
2022-08-25T10:53:49.115Z,39.80
2022-08-25T11:08:48.718Z,38.79
2022-08-25T11:23:48.569Z,37.51
2022-08-25T11:38:48.650Z,36.08
2022-08-25T11:53:48.747Z,32.77
2022-08-25T12:08:48.872Z,33.30
2022-08-25T12:23:52.842Z,34.28
2022-08-25T12:38:52.086Z,33.23
2022-08-25T12:53:48.997Z,32.56
2022-08-25T13:08:48.906Z,31.51
2022-08-25T13:23:48.941Z,30.45
2022-08-25T13:38:48.964Z,29.58
2022-08-25T13:53:48.929Z,28.38
2022-08-25T14:08:49.116Z,29.78
2022-08-25T14:23:48.964Z,28.89
2022-08-25T14:38:54.573Z,28.88
2022-08-25T14:53:49.258Z,30.93
2022-08-25T15:08:49.216Z,29.29
2022-08-25T15:23:51.049Z,27.43
2022-08-25T15:38:49.359Z,29.71
2022-08-25T15:53:49.520Z,28.78
2022-08-25T16:08:49.529Z,28.29
2022-08-25T16:23:49.452Z,30.05
2022-08-25T16:38:50.250Z,29.98
2022-08-25T16:53:49.818Z,30.79
2022-08-25T17:08:49.714Z,30.20
2022-08-25T17:23:49.552Z,32.38
2022-08-25T17:38:49.661Z,33.93
2022-08-25T17:53:49.595Z,34.36
2022-08-25T18:08:51.232Z,36.17
2022-08-25T18:23:49.634Z,36.88
2022-08-25T18:38:49.896Z,38.22
2022-08-25T18:53:50.686Z,39.95
2022-08-25T19:08:50.081Z,42.46
2022-08-25T19:23:50.061Z,44.10
2022-08-25T19:38:50.026Z,44.70
2022-08-25T19:53:54.390Z,45.40
2022-08-25T20:08:58.889Z,46.50
2022-08-25T20:23:50.027Z,48.41
2022-08-25T20:38:49.938Z,49.36
2022-08-25T20:53:50.018Z,49.36
2022-08-25T21:08:50.009Z,50.21
2022-08-25T21:23:50.083Z,52.44
2022-08-25T21:38:50.013Z,55.29
2022-08-25T21:53:50.145Z,59.02
2022-08-25T22:08:49.994Z,63.57
2022-08-25T22:23:50.050Z,70.20
2022-08-25T22:38:51.330Z,73.32
2022-08-25T22:53:50.144Z,78.69
2022-08-25T23:08:50.125Z,85.45
2022-08-25T23:23:50.108Z,90.71
2022-08-25T23:38:51.501Z,95.48
2022-08-25T23:53:50.188Z,97.42
